»·PEaware :: N359W KRDD-KMFR

N359W :: KRDD-KMFR

FLIGHT INFORMATION

Flight Status: Arrived
Operator: Privately registered:
United States
More flights under this callsign
Pilot: Anonymous 18613 (18613)
Aircraft: BEECH AIRCRAFT BARON
(BE58)
More flights by this aircraft type
Origin: KRDD Redding Mun
United States
Destination: KMFR Rogue Valley Intl-Medford
United States
More flights between these airports :: More routes between these airports
Route: +KENDL3 RBL V23 OED
File this flight plan on PilotEdge
Remarks:
Altitude:
(Current/Filed)
11,000ft
Speed:
(Current/Filed)
185kts
Departed: 05-Jul-18 11:52 AM
Arrived: 05-Jul-18 12:42 PM
Distance/Time
Traveled:
115nm/0:50
Distance/Time
To Go:
Arrived

Flight Plot

Page will automatically refresh every two minutes.

Flight plan parsing failed; only flown route is shown


Map Options




Map Legend


Flown Route
Filed Route
Departure Airport
Arrival Airport
Navaid (VOR, NDB)
Fix

Horizontal Profiles

Position Reports

Time Latitude Longitude Heading Altitude Ground
Speed
05-Jul-18 11:25 40.519834 -122.292072 359 505ft 0kts
05-Jul-18 11:26 40.519834 -122.292072 359 505ft 0kts
05-Jul-18 11:27 40.519834 -122.292072 359 505ft 0kts
05-Jul-18 11:28 40.519834 -122.292072 359 505ft 0kts
05-Jul-18 11:29 40.519834 -122.292072 359 505ft 0kts
05-Jul-18 11:30 40.519834 -122.292072 359 505ft 0kts
05-Jul-18 11:31 40.519834 -122.292072 359 505ft 0kts
05-Jul-18 11:32 40.519834 -122.292072 359 505ft 0kts
05-Jul-18 11:33 40.519834 -122.292072 359 505ft 0kts
05-Jul-18 11:34 40.519834 -122.292072 359 505ft 0kts
05-Jul-18 11:35 40.519834 -122.292072 359 505ft 0kts
05-Jul-18 11:36 40.519834 -122.292072 359 505ft 0kts
05-Jul-18 11:37 40.519834 -122.292072 359 505ft 0kts
05-Jul-18 11:38 40.519834 -122.292072 359 505ft 0kts
05-Jul-18 11:39 40.520099 -122.292252 358 505ft 0kts
05-Jul-18 11:40 40.520099 -122.292252 358 505ft 0kts
05-Jul-18 11:41 40.520099 -122.292252 358 505ft 0kts
05-Jul-18 11:43 40.520260 -122.292474 263 505ft 9kts
05-Jul-18 11:44 40.517583 -122.296275 180 505ft 25kts
05-Jul-18 11:45 40.510834 -122.296304 180 505ft 24kts
05-Jul-18 11:46 40.504064 -122.296320 180 505ft 24kts
05-Jul-18 11:47 40.501433 -122.295948 93 505ft 0kts
05-Jul-18 11:48 40.501433 -122.295948 93 505ft 0kts
05-Jul-18 11:49 40.501433 -122.295948 93 505ft 0kts
05-Jul-18 11:50 40.501433 -122.295948 93 505ft 0kts
05-Jul-18 11:51 40.501433 -122.295948 93 505ft 0kts
05-Jul-18 11:52 40.501809 -122.294897 0 505ft 17kts
05-Jul-18 11:53 40.529010 -122.293358 4 1353ft 120kts
05-Jul-18 11:54 40.522933 -122.269789 200 2520ft 119kts
05-Jul-18 11:55 40.497468 -122.294809 223 3697ft 130kts
05-Jul-18 11:56 40.467890 -122.318450 209 4935ft 120kts
05-Jul-18 11:57 40.434366 -122.329444 185 5932ft 127kts
05-Jul-18 11:58 40.399820 -122.333852 192 6899ft 125kts
05-Jul-18 11:59 40.374509 -122.352660 297 7752ft 132kts
05-Jul-18 12:00 40.412091 -122.359148 353 8631ft 149kts
05-Jul-18 12:01 40.453884 -122.362900 325 9369ft 147kts
05-Jul-18 12:02 40.489840 -122.387773 340 10082ft 154kts
05-Jul-18 12:03 40.529646 -122.407185 333 10758ft 154kts
05-Jul-18 12:04 40.571807 -122.426808 336 11076ft 179kts
05-Jul-18 12:05 40.622148 -122.448239 338 11068ft 197kts
05-Jul-18 12:06 40.675156 -122.470158 338 11066ft 201kts
05-Jul-18 12:07 40.728820 -122.492231 338 11067ft 203kts
05-Jul-18 12:08 40.783104 -122.514551 339 11067ft 204kts
05-Jul-18 12:09 40.837280 -122.537164 338 11067ft 205kts
05-Jul-18 12:10 40.891937 -122.558988 340 11067ft 205kts
05-Jul-18 12:11 40.946666 -122.580375 342 11068ft 206kts
05-Jul-18 12:12 41.002041 -122.601734 339 10972ft 209kts
05-Jul-18 12:13 41.056755 -122.625620 337 10977ft 206kts
05-Jul-18 12:14 41.106922 -122.648466 337 10979ft 205kts
05-Jul-18 12:15 41.159636 -122.673006 335 10981ft 203kts
05-Jul-18 12:16 41.213119 -122.697715 335 10981ft 203kts
05-Jul-18 12:17 41.266416 -122.722240 335 10982ft 203kts
05-Jul-18 12:18 41.319772 -122.746797 335 10982ft 203kts
05-Jul-18 12:19 41.373158 -122.771401 335 10982ft 203kts
05-Jul-18 12:20 41.426584 -122.796060 335 10983ft 203kts
05-Jul-18 12:21 41.481797 -122.813486 350 10983ft 207kts
05-Jul-18 12:22 41.538954 -122.821488 348 10983ft 206kts
05-Jul-18 12:23 41.595590 -122.833083 348 10984ft 206kts
05-Jul-18 12:24 41.652569 -122.843958 348 10984ft 207kts
05-Jul-18 12:25 41.709504 -122.854585 347 10984ft 207kts
05-Jul-18 12:26 41.765943 -122.865594 358 10985ft 208kts
05-Jul-18 12:27 41.823837 -122.863449 356 10985ft 208kts
05-Jul-18 12:28 41.881898 -122.860507 357 10986ft 208kts
05-Jul-18 12:29 41.939707 -122.861208 357 10984ft 209kts
05-Jul-18 12:30 41.996484 -122.865047 347 11110ft 203kts
05-Jul-18 12:31 42.053118 -122.874406 350 11096ft 206kts
05-Jul-18 12:32 42.108966 -122.881601 351 11083ft 206kts
05-Jul-18 12:33 42.158443 -122.917659 316 9974ft 214kts
05-Jul-18 12:34 42.205706 -122.956351 325 8105ft 165kts
05-Jul-18 12:35 42.228195 -122.972821 325 8065ft 169kts
05-Jul-18 12:36 42.273268 -123.005663 328 7413ft 200kts
05-Jul-18 12:37 42.320195 -123.031150 335 6869ft 155kts
05-Jul-18 12:38 42.367461 -123.021744 12 6849ft 170kts
05-Jul-18 12:39 42.402801 -122.985204 40 5045ft 162kts
05-Jul-18 12:40 42.425766 -122.936878 79 3294ft 145kts
05-Jul-18 12:41 42.412707 -122.892534 161 1919ft 132kts
05-Jul-18 12:42 42.384783 -122.878355 160 1347ft 91kts
05-Jul-18 12:43 42.376141 -122.874959 249 1334ft 0kts
05-Jul-18 12:44 42.372715 -122.875319 216 1334ft 12kts
05-Jul-18 12:45 42.371835 -122.877848 111 1334ft 0kts

Navigation Log

Ident Type
Flight plan parsing failed, navigation log unavailable